»·PEaware :: WAT2019 KSMF-KPDX

WAT2019 :: KSMF-KPDX

FLIGHT INFORMATION

Flight Status: Arrived
Operator:
Walker Air Transport
More flights by this operator :: More flights under this callsign
Pilot: Bogdan R. (37247)
Aircraft: BOEING 737-800
(B738)
More flights by this aircraft type
Origin: KSMF Sacramento Intl
United States
Destination: KPDX Portland Intl
United States
More flights between these airports :: More routes between these airports
Route: RBL MACHU TMBRS2
File this flight plan on PilotEdge
Remarks: RMK / SIMBRIEF
Altitude:
(Current/Filed)
40,000ft
Speed:
(Current/Filed)
453kts
Departed: 01-Oct-22 08:46 PM
Arrived: 01-Oct-22 10:07 PM
Distance/Time
Traveled:
416nm/1:21
Distance/Time
To Go:
Arrived

Flight Plot

Page will automatically refresh every two minutes.

Flight plan parsing failed; only flown route is shown


Map Options




Map Legend


Flown Route
Filed Route
Departure Airport
Arrival Airport
Navaid (VOR, NDB)
Fix

Horizontal Profiles

Position Reports

Time Latitude Longitude Heading Altitude Ground
Speed
01-Oct-22 20:08 38.694375 -121.586950 266 31ft 0kts
01-Oct-22 20:09 38.694375 -121.586950 266 31ft 0kts
01-Oct-22 20:10 38.694375 -121.586950 266 31ft 0kts
01-Oct-22 20:11 38.694375 -121.586950 266 31ft 0kts
01-Oct-22 20:12 38.694375 -121.586950 266 31ft 0kts
01-Oct-22 20:13 38.694375 -121.586950 266 31ft 0kts
01-Oct-22 20:14 38.694379 -121.586847 266 22ft 0kts
01-Oct-22 20:15 38.694379 -121.586847 266 22ft 0kts
01-Oct-22 20:16 38.694379 -121.586847 266 22ft 0kts
01-Oct-22 20:17 38.694379 -121.586847 266 22ft 0kts
01-Oct-22 20:18 38.694379 -121.586847 266 22ft 0kts
01-Oct-22 20:19 38.694379 -121.586847 266 22ft 0kts
01-Oct-22 20:20 38.694379 -121.586847 266 22ft 0kts
01-Oct-22 20:21 38.694379 -121.586847 266 22ft 0kts
01-Oct-22 20:22 38.694379 -121.586847 266 22ft 0kts
01-Oct-22 20:23 38.694379 -121.586847 266 22ft 0kts
01-Oct-22 20:24 38.694379 -121.586847 266 22ft 0kts
01-Oct-22 20:25 38.694379 -121.586847 266 22ft 0kts
01-Oct-22 20:26 38.694379 -121.586847 266 22ft 0kts
01-Oct-22 20:27 38.694379 -121.586847 266 22ft 0kts
01-Oct-22 20:28 38.694379 -121.586847 266 22ft 0kts
01-Oct-22 20:29 38.694379 -121.586847 266 22ft 0kts
01-Oct-22 20:30 38.694379 -121.586847 266 22ft 0kts
01-Oct-22 20:31 38.694379 -121.586847 266 22ft 0kts
01-Oct-22 20:32 38.694409 -121.586146 266 27ft 2kts
01-Oct-22 20:33 38.694410 -121.586120 266 27ft 0kts
01-Oct-22 20:34 38.694410 -121.586120 266 29ft 0kts
01-Oct-22 20:35 38.694410 -121.586120 266 29ft 0kts
01-Oct-22 20:36 38.694547 -121.586397 343 29ft 5kts
01-Oct-22 20:37 38.696896 -121.585187 88 30ft 11kts
01-Oct-22 20:38 38.697925 -121.582851 359 32ft 9kts
01-Oct-22 20:39 38.700538 -121.582796 359 34ft 8kts
01-Oct-22 20:40 38.703380 -121.582765 0 35ft 11kts
01-Oct-22 20:41 38.706358 -121.582710 3 33ft 8kts
01-Oct-22 20:42 38.707013 -121.581572 89 34ft 0kts
01-Oct-22 20:43 38.707013 -121.581555 89 34ft 1kts
01-Oct-22 20:44 38.706602 -121.580100 176 34ft 0kts
01-Oct-22 20:45 38.670946 -121.579717 159 2245ft 186kts
01-Oct-22 20:46 38.646676 -121.525922 114 6693ft 185kts
01-Oct-22 20:47 38.646590 -121.462015 37 9837ft 218kts
01-Oct-22 20:48 38.703673 -121.430759 23 12326ft 227kts
01-Oct-22 20:49 38.767284 -121.397105 23 14078ft 292kts
01-Oct-22 20:50 38.855383 -121.349248 23 15060ft 381kts
01-Oct-22 20:51 38.955525 -121.294054 23 17506ft 399kts
01-Oct-22 20:52 39.059197 -121.235585 23 18938ft 410kts
01-Oct-22 20:53 39.166033 -121.196153 348 18975ft 405kts
01-Oct-22 20:54 39.258087 -121.279536 317 20970ft 413kts
01-Oct-22 20:55 39.347498 -121.376711 318 23246ft 428kts
01-Oct-22 20:56 39.439042 -121.478491 317 25068ft 441kts
01-Oct-22 20:57 39.535006 -121.580651 318 26759ft 454kts
01-Oct-22 20:58 39.616296 -121.702973 276 28271ft 450kts
01-Oct-22 20:59 39.582416 -121.853755 260 29701ft 453kts
01-Oct-22 21:00 39.639674 -121.988114 331 31739ft 442kts
01-Oct-22 21:01 39.751382 -122.047869 335 33628ft 432kts
01-Oct-22 21:02 39.863073 -122.108591 335 34338ft 447kts
01-Oct-22 21:03 39.983008 -122.169256 336 34562ft 477kts
01-Oct-22 21:04 40.105527 -122.235598 336 35836ft 473kts
01-Oct-22 21:05 40.234806 -122.270116 349 37114ft 473kts
01-Oct-22 21:06 40.364122 -122.298236 347 38358ft 468kts
01-Oct-22 21:07 40.492052 -122.328281 347 39223ft 467kts
01-Oct-22 21:08 40.620052 -122.358506 347 39845ft 469kts
01-Oct-22 21:09 40.747843 -122.388754 347 39870ft 466kts
01-Oct-22 21:10 40.875907 -122.419197 347 39920ft 467kts
01-Oct-22 21:11 41.004011 -122.449769 347 39959ft 467kts
01-Oct-22 21:12 41.131810 -122.480385 347 39996ft 467kts
01-Oct-22 21:13 41.258855 -122.510943 347 40019ft 467kts
01-Oct-22 21:14 41.386640 -122.541799 347 40032ft 467kts
01-Oct-22 21:15 41.514691 -122.572844 347 39999ft 468kts
01-Oct-22 21:16 41.645235 -122.584254 356 39983ft 470kts
01-Oct-22 21:18 41.775657 -122.591575 355 39978ft 470kts
01-Oct-22 21:19 41.906322 -122.600200 355 39976ft 470kts
01-Oct-22 21:20 42.036908 -122.608787 355 39972ft 469kts
01-Oct-22 21:21 42.164077 -122.617162 355 39999ft 437kts
01-Oct-22 21:22 42.283676 -122.625103 355 39934ft 432kts
01-Oct-22 21:23 42.403505 -122.633147 356 39924ft 431kts
01-Oct-22 21:24 42.523251 -122.641178 356 39924ft 430kts
01-Oct-22 21:25 42.642867 -122.649235 356 39921ft 429kts
01-Oct-22 21:26 42.761769 -122.657276 356 39925ft 429kts
01-Oct-22 21:27 42.881109 -122.665360 356 39932ft 429kts
01-Oct-22 21:28 43.000433 -122.673501 356 39938ft 428kts
01-Oct-22 21:29 43.119251 -122.681633 356 39941ft 429kts
01-Oct-22 21:30 43.238357 -122.689810 356 39945ft 427kts
01-Oct-22 21:31 43.357428 -122.698019 356 39947ft 428kts
01-Oct-22 21:32 43.476073 -122.706201 357 39944ft 427kts
01-Oct-22 21:33 43.594513 -122.714387 357 38705ft 424kts
01-Oct-22 21:34 43.712046 -122.722540 357 36181ft 421kts
01-Oct-22 21:35 43.828970 -122.730679 358 33402ft 424kts
01-Oct-22 21:36 43.945705 -122.738838 357 31040ft 412kts
01-Oct-22 21:37 44.058172 -122.746736 357 28928ft 397kts
01-Oct-22 21:38 44.165375 -122.752896 2 27330ft 369kts
01-Oct-22 21:39 44.267419 -122.741966 4 25502ft 365kts
01-Oct-22 21:40 44.366935 -122.731776 4 23477ft 357kts
01-Oct-22 21:41 44.464563 -122.722126 4 21562ft 347kts
01-Oct-22 21:42 44.559992 -122.712655 5 19909ft 335kts
01-Oct-22 21:43 44.650910 -122.703566 5 18458ft 326kts
01-Oct-22 21:43 44.725913 -122.696011 5 17013ft 323kts
01-Oct-22 21:44 44.814673 -122.687070 4 15395ft 318kts
01-Oct-22 21:46 44.917402 -122.676730 4 13548ft 315kts
01-Oct-22 21:47 45.000281 -122.668381 4 12681ft 291kts
01-Oct-22 21:48 45.080675 -122.660198 5 11377ft 288kts
01-Oct-22 21:48 45.147234 -122.653420 5 10247ft 289kts
01-Oct-22 21:49 45.226925 -122.645282 6 8993ft 285kts
01-Oct-22 21:50 45.301411 -122.671272 340 7744ft 279kts
01-Oct-22 21:51 45.372419 -122.710360 340 7004ft 260kts
01-Oct-22 21:53 45.447644 -122.751674 340 6231ft 245kts
01-Oct-22 21:53 45.500904 -122.780983 341 5430ft 248kts
01-Oct-22 21:54 45.562841 -122.815195 342 4635ft 228kts
01-Oct-22 21:55 45.602381 -122.879276 303 4078ft 202kts
01-Oct-22 21:56 45.631524 -122.941215 319 4007ft 186kts
01-Oct-22 21:57 45.674328 -122.959828 24 4021ft 170kts
01-Oct-22 21:58 45.699886 -122.921795 94 3333ft 141kts
01-Oct-22 21:59 45.696626 -122.868139 96 2994ft 129kts
01-Oct-22 22:00 45.679705 -122.813013 115 2956ft 144kts
01-Oct-22 22:01 45.663386 -122.771067 115 2748ft 119kts
01-Oct-22 22:02 45.647034 -122.729283 115 2099ft 123kts
01-Oct-22 22:03 45.630064 -122.685897 116 1454ft 131kts
01-Oct-22 22:04 45.612234 -122.640286 117 770ft 130kts
01-Oct-22 22:05 45.594340 -122.594488 120 68ft 130kts
01-Oct-22 22:06 45.586384 -122.576362 202 38ft 0kts
01-Oct-22 22:07 45.587351 -122.579696 299 38ft 18kts
01-Oct-22 22:08 45.589582 -122.585723 274 38ft 15kts
01-Oct-22 22:09 45.590389 -122.589620 302 39ft 7kts
01-Oct-22 22:10 45.589860 -122.590599 224 39ft 0kts
01-Oct-22 22:11 45.589860 -122.590599 224 39ft 0kts

Navigation Log

Ident Type
Flight plan parsing failed, navigation log unavailable